sensor_id;sensor_type;location;lat;lon;timestamp;temperature;humidity
21648;DHT22;10985;54.182;7.890;2023-08-07T00:00:09;17.40;99.90
21648;DHT22;10985;54.182;7.890;2023-08-07T00:02:35;17.40;99.90
21648;DHT22;10985;54.182;7.890;2023-08-07T00:05:00;17.40;99.90
21648;DHT22;10985;54.182;7.890;2023-08-07T00:07:26;17.40;99.90
21648;DHT22;10985;54.182;7.890;2023-08-07T00:09:51;17.40;99.90
21648;DHT22;10985;54.182;7.890;2023-08-07T00:12:17;17.40;99.90
21648;DHT22;10985;54.182;7.890;2023-08-07T00:14:42;17.40;99.90
21648;DHT22;10985;54.182;7.890;2023-08-07T00:17:08;17.40;99.90
21648;DHT22;10985;54.182;7.890;2023-08-07T00:19:34;17.40;99.90
21648;DHT22;10985;54.182;7.890;2023-08-07T00:22:00;17.40;99.90
21648;DHT22;10985;54.182;7.890;2023-08-07T00:24:25;17.40;99.90
21648;DHT22;10985;54.182;7.890;2023-08-07T00:26:51;17.30;99.90
21648;DHT22;10985;54.182;7.890;2023-08-07T00:29:16;17.30;99.90
21648;DHT22;10985;54.182;7.890;2023-08-07T00:31:42;17.30;99.90
21648;DHT22;10985;54.182;7.890;2023-08-07T00:34:07;17.40;99.90
21648;DHT22;10985;54.182;7.890;2023-08-07T00:36:35;17.30;99.90
21648;DHT22;10985;54.182;7.890;2023-08-07T00:39:01;17.30;99.90
21648;DHT22;10985;54.182;7.890;2023-08-07T00:41:29;17.30;99.90
21648;DHT22;10985;54.182;7.890;2023-08-07T00:43:54;17.30;99.90
21648;DHT22;10985;54.182;7.890;2023-08-07T00:46:20;17.30;99.90
21648;DHT22;10985;54.182;7.890;2023-08-07T00:48:45;17.20;99.90
21648;DHT22;10985;54.182;7.890;2023-08-07T00:51:11;17.30;99.90
21648;DHT22;10985;54.182;7.890;2023-08-07T00:53:38;17.30;99.90
21648;DHT22;10985;54.182;7.890;2023-08-07T00:56:05;17.20;99.90
21648;DHT22;10985;54.182;7.890;2023-08-07T00:58:32;17.20;99.90
21648;DHT22;10985;54.182;7.890;2023-08-07T01:00:58;17.20;99.90
21648;DHT22;10985;54.182;7.890;2023-08-07T01:03:23;17.20;99.90
21648;DHT22;10985;54.182;7.890;2023-08-07T01:05:49;17.20;99.90
21648;DHT22;10985;54.182;7.890;2023-08-07T01:08:14;17.20;99.90
21648;DHT22;10985;54.182;7.890;2023-08-07T01:13:56;17.20;99.90
21648;DHT22;10985;54.182;7.890;2023-08-07T01:16:40;17.20;99.90
21648;DHT22;10985;54.182;7.890;2023-08-07T01:19:19;17.10;99.90
21648;DHT22;10985;54.182;7.890;2023-08-07T01:21:48;17.10;99.90
21648;DHT22;10985;54.182;7.890;2023-08-07T01:24:14;17.10;99.90
21648;DHT22;10985;54.182;7.890;2023-08-07T01:26:42;17.10;99.90
21648;DHT22;10985;54.182;7.890;2023-08-07T01:29:17;17.00;99.90
21648;DHT22;10985;54.182;7.890;2023-08-07T01:31:45;17.10;99.90
21648;DHT22;10985;54.182;7.890;2023-08-07T01:34:13;17.10;99.90
21648;DHT22;10985;54.182;7.890;2023-08-07T01:36:40;17.10;99.90
21648;DHT22;10985;54.182;7.890;2023-08-07T01:39:06;17.00;99.90
21648;DHT22;10985;54.182;7.890;2023-08-07T01:41:35;17.00;99.90
21648;DHT22;10985;54.182;7.890;2023-08-07T01:44:01;17.00;99.90
21648;DHT22;10985;54.182;7.890;2023-08-07T01:46:27;17.00;99.90
21648;DHT22;10985;54.182;7.890;2023-08-07T01:48:52;17.00;99.90
21648;DHT22;10985;54.182;7.890;2023-08-07T01:51:18;16.90;99.90
21648;DHT22;10985;54.182;7.890;2023-08-07T01:53:43;16.90;99.90
21648;DHT22;10985;54.182;7.890;2023-08-07T01:56:09;16.90;99.90
21648;DHT22;10985;54.182;7.890;2023-08-07T01:58:34;16.90;99.90
21648;DHT22;10985;54.182;7.890;2023-08-07T02:01:00;16.80;99.90
21648;DHT22;10985;54.182;7.890;2023-08-07T02:03:25;16.80;99.90
21648;DHT22;10985;54.182;7.890;2023-08-07T02:05:51;16.80;99.90
21648;DHT22;10985;54.182;7.890;2023-08-07T02:08:17;16.80;99.90
21648;DHT22;10985;54.182;7.890;2023-08-07T02:10:42;16.80;99.90
21648;DHT22;10985;54.182;7.890;2023-08-07T02:13:08;16.80;99.90
21648;DHT22;10985;54.182;7.890;2023-08-07T02:15:33;16.70;99.90
21648;DHT22;10985;54.182;7.890;2023-08-07T02:17:59;16.70;99.90
21648;DHT22;10985;54.182;7.890;2023-08-07T02:20:24;16.70;99.90
21648;DHT22;10985;54.182;7.890;2023-08-07T02:22:50;16.70;99.90
21648;DHT22;10985;54.182;7.890;2023-08-07T02:25:15;16.70;99.90
21648;DHT22;10985;54.182;7.890;2023-08-07T02:27:41;16.60;99.90
21648;DHT22;10985;54.182;7.890;2023-08-07T02:30:07;16.70;99.90
21648;DHT22;10985;54.182;7.890;2023-08-07T02:32:33;16.70;99.90
21648;DHT22;10985;54.182;7.890;2023-08-07T02:34:58;16.60;99.90
21648;DHT22;10985;54.182;7.890;2023-08-07T02:37:24;16.60;99.90
21648;DHT22;10985;54.182;7.890;2023-08-07T02:39:49;16.60;99.90
21648;DHT22;10985;54.182;7.890;2023-08-07T02:42:15;16.60;99.90
21648;DHT22;10985;54.182;7.890;2023-08-07T02:44:40;16.60;99.90
21648;DHT22;10985;54.182;7.890;2023-08-07T02:47:06;16.50;99.90
21648;DHT22;10985;54.182;7.890;2023-08-07T02:49:31;16.50;99.90
21648;DHT22;10985;54.182;7.890;2023-08-07T02:51:57;16.60;99.90
21648;DHT22;10985;54.182;7.890;2023-08-07T02:54:23;16.60;99.90
21648;DHT22;10985;54.182;7.890;2023-08-07T02:56:48;16.60;99.90
21648;DHT22;10985;54.182;7.890;2023-08-07T02:59:14;16.50;99.90
21648;DHT22;10985;54.182;7.890;2023-08-07T03:01:40;16.50;99.90
21648;DHT22;10985;54.182;7.890;2023-08-07T03:04:05;16.50;99.90
21648;DHT22;10985;54.182;7.890;2023-08-07T03:06:31;16.50;99.90
21648;DHT22;10985;54.182;7.890;2023-08-07T03:08:57;16.50;99.90
21648;DHT22;10985;54.182;7.890;2023-08-07T03:11:22;16.50;99.90
21648;DHT22;10985;54.182;7.890;2023-08-07T03:13:48;16.50;99.90
21648;DHT22;10985;54.182;7.890;2023-08-07T03:16:14;16.50;99.90
21648;DHT22;10985;54.182;7.890;2023-08-07T03:18:40;16.40;99.90
21648;DHT22;10985;54.182;7.890;2023-08-07T03:21:05;16.40;99.90
21648;DHT22;10985;54.182;7.890;2023-08-07T03:23:31;16.50;99.90
21648;DHT22;10985;54.182;7.890;2023-08-07T03:28:29;16.40;99.90
21648;DHT22;10985;54.182;7.890;2023-08-07T03:30:55;16.40;99.90
21648;DHT22;10985;54.182;7.890;2023-08-07T03:33:20;16.50;99.90
21648;DHT22;10985;54.182;7.890;2023-08-07T03:35:45;16.50;99.90
21648;DHT22;10985;54.182;7.890;2023-08-07T03:38:11;16.40;99.90
21648;DHT22;10985;54.182;7.890;2023-08-07T03:40:36;16.40;99.90
21648;DHT22;10985;54.182;7.890;2023-08-07T03:43:02;16.30;99.90
21648;DHT22;10985;54.182;7.890;2023-08-07T03:45:28;16.30;99.90
21648;DHT22;10985;54.182;7.890;2023-08-07T03:47:53;16.30;99.90
21648;DHT22;10985;54.182;7.890;2023-08-07T03:50:19;16.40;99.90
21648;DHT22;10985;54.182;7.890;2023-08-07T03:52:44;16.30;99.90
21648;DHT22;10985;54.182;7.890;2023-08-07T03:55:10;16.40;99.90
21648;DHT22;10985;54.182;7.890;2023-08-07T03:57:35;16.40;99.90
21648;DHT22;10985;54.182;7.890;2023-08-07T04:00:00;16.30;99.90
21648;DHT22;10985;54.182;7.890;2023-08-07T04:02:26;16.30;99.90
21648;DHT22;10985;54.182;7.890;2023-08-07T04:04:53;16.30;99.90
21648;DHT22;10985;54.182;7.890;2023-08-07T04:07:19;16.30;99.90
21648;DHT22;10985;54.182;7.890;2023-08-07T04:09:44;16.30;99.90
21648;DHT22;10985;54.182;7.890;2023-08-07T04:12:10;16.30;99.90
21648;DHT22;10985;54.182;7.890;2023-08-07T04:14:35;16.30;99.90
21648;DHT22;10985;54.182;7.890;2023-08-07T04:17:01;16.30;99.90
21648;DHT22;10985;54.182;7.890;2023-08-07T04:19:27;16.30;99.90
21648;DHT22;10985;54.182;7.890;2023-08-07T04:21:53;16.30;99.90
21648;DHT22;10985;54.182;7.890;2023-08-07T04:24:18;16.30;99.90
21648;DHT22;10985;54.182;7.890;2023-08-07T04:26:44;16.40;99.90
21648;DHT22;10985;54.182;7.890;2023-08-07T04:29:09;16.40;99.90
21648;DHT22;10985;54.182;7.890;2023-08-07T04:31:35;16.40;99.90
21648;DHT22;10985;54.182;7.890;2023-08-07T04:34:00;16.30;99.90
21648;DHT22;10985;54.182;7.890;2023-08-07T04:36:26;16.40;99.90
21648;DHT22;10985;54.182;7.890;2023-08-07T04:38:51;16.30;99.90
21648;DHT22;10985;54.182;7.890;2023-08-07T04:41:17;16.30;99.90
21648;DHT22;10985;54.182;7.890;2023-08-07T04:43:42;16.30;99.90
21648;DHT22;10985;54.182;7.890;2023-08-07T04:46:09;16.30;99.90
21648;DHT22;10985;54.182;7.890;2023-08-07T04:48:35;16.20;99.90
21648;DHT22;10985;54.182;7.890;2023-08-07T04:51:01;16.30;99.90
21648;DHT22;10985;54.182;7.890;2023-08-07T04:53:27;16.30;99.90
21648;DHT22;10985;54.182;7.890;2023-08-07T04:55:53;16.20;99.90
21648;DHT22;10985;54.182;7.890;2023-08-07T04:58:18;16.30;99.90
21648;DHT22;10985;54.182;7.890;2023-08-07T05:00:44;16.30;99.90
21648;DHT22;10985;54.182;7.890;2023-08-07T05:03:09;16.30;99.90
21648;DHT22;10985;54.182;7.890;2023-08-07T05:05:35;16.30;99.90
21648;DHT22;10985;54.182;7.890;2023-08-07T05:08:00;16.30;99.90
21648;DHT22;10985;54.182;7.890;2023-08-07T05:10:26;16.20;99.90
21648;DHT22;10985;54.182;7.890;2023-08-07T05:12:51;16.20;99.90
21648;DHT22;10985;54.182;7.890;2023-08-07T05:15:24;16.30;99.90
21648;DHT22;10985;54.182;7.890;2023-08-07T05:17:50;16.30;99.90
21648;DHT22;10985;54.182;7.890;2023-08-07T05:20:16;16.30;99.90
21648;DHT22;10985;54.182;7.890;2023-08-07T05:22:42;16.30;99.90
21648;DHT22;10985;54.182;7.890;2023-08-07T05:25:08;16.30;99.90
21648;DHT22;10985;54.182;7.890;2023-08-07T05:27:35;16.40;99.90
21648;DHT22;10985;54.182;7.890;2023-08-07T05:30:00;16.40;99.90
21648;DHT22;10985;54.182;7.890;2023-08-07T05:32:26;16.40;99.90
21648;DHT22;10985;54.182;7.890;2023-08-07T05:34:52;16.40;99.90
21648;DHT22;10985;54.182;7.890;2023-08-07T05:37:17;16.40;99.90
21648;DHT22;10985;54.182;7.890;2023-08-07T05:39:43;16.40;99.90
21648;DHT22;10985;54.182;7.890;2023-08-07T05:42:08;16.40;99.90
21648;DHT22;10985;54.182;7.890;2023-08-07T05:44:35;16.40;99.90
21648;DHT22;10985;54.182;7.890;2023-08-07T05:47:01;16.40;99.90
21648;DHT22;10985;54.182;7.890;2023-08-07T05:49:26;16.40;99.90
21648;DHT22;10985;54.182;7.890;2023-08-07T05:51:53;16.30;99.90
21648;DHT22;10985;54.182;7.890;2023-08-07T05:54:18;16.40;99.90
21648;DHT22;10985;54.182;7.890;2023-08-07T05:56:44;16.40;99.90
21648;DHT22;10985;54.182;7.890;2023-08-07T05:59:09;16.40;99.90
21648;DHT22;10985;54.182;7.890;2023-08-07T06:01:35;16.30;99.90
21648;DHT22;10985;54.182;7.890;2023-08-07T06:04:02;16.30;99.90
21648;DHT22;10985;54.182;7.890;2023-08-07T06:06:28;16.30;99.90
21648;DHT22;10985;54.182;7.890;2023-08-07T06:08:54;16.30;99.90
21648;DHT22;10985;54.182;7.890;2023-08-07T06:11:19;16.40;99.90
21648;DHT22;10985;54.182;7.890;2023-08-07T06:13:45;16.40;99.90
21648;DHT22;10985;54.182;7.890;2023-08-07T06:16:10;16.40;99.90
21648;DHT22;10985;54.182;7.890;2023-08-07T06:18:36;16.40;99.90
21648;DHT22;10985;54.182;7.890;2023-08-07T06:21:02;16.40;99.90
21648;DHT22;10985;54.182;7.890;2023-08-07T06:23:29;16.50;99.90
21648;DHT22;10985;54.182;7.890;2023-08-07T06:25:54;16.50;99.90
21648;DHT22;10985;54.182;7.890;2023-08-07T06:28:20;16.50;99.90
21648;DHT22;10985;54.182;7.890;2023-08-07T06:30:46;16.60;99.90
21648;DHT22;10985;54.182;7.890;2023-08-07T06:33:12;16.60;99.90
21648;DHT22;10985;54.182;7.890;2023-08-07T06:35:38;16.60;99.90
21648;DHT22;10985;54.182;7.890;2023-08-07T06:38:05;16.60;99.90
21648;DHT22;10985;54.182;7.890;2023-08-07T06:40:30;16.60;99.90
21648;DHT22;10985;54.182;7.890;2023-08-07T06:42:56;16.60;99.90
21648;DHT22;10985;54.182;7.890;2023-08-07T06:45:21;16.70;99.90
21648;DHT22;10985;54.182;7.890;2023-08-07T06:47:47;16.70;99.90
21648;DHT22;10985;54.182;7.890;2023-08-07T06:50:13;16.80;99.90
21648;DHT22;10985;54.182;7.890;2023-08-07T06:52:39;16.90;99.90
21648;DHT22;10985;54.182;7.890;2023-08-07T06:55:05;16.90;99.90
21648;DHT22;10985;54.182;7.890;2023-08-07T06:57:31;16.90;99.90
21648;DHT22;10985;54.182;7.890;2023-08-07T06:59:56;17.00;99.90
21648;DHT22;10985;54.182;7.890;2023-08-07T07:02:22;17.00;99.90
21648;DHT22;10985;54.182;7.890;2023-08-07T07:04:47;17.10;99.90
21648;DHT22;10985;54.182;7.890;2023-08-07T07:07:13;17.10;99.90
21648;DHT22;10985;54.182;7.890;2023-08-07T07:09:38;17.10;99.90
21648;DHT22;10985;54.182;7.890;2023-08-07T07:12:04;17.10;99.90
21648;DHT22;10985;54.182;7.890;2023-08-07T07:14:31;17.20;99.90
21648;DHT22;10985;54.182;7.890;2023-08-07T07:16:57;17.20;99.90
21648;DHT22;10985;54.182;7.890;2023-08-07T07:19:23;17.30;99.90
21648;DHT22;10985;54.182;7.890;2023-08-07T07:21:48;17.30;99.90
21648;DHT22;10985;54.182;7.890;2023-08-07T07:24:14;17.30;99.90
21648;DHT22;10985;54.182;7.890;2023-08-07T07:26:39;17.30;99.90
21648;DHT22;10985;54.182;7.890;2023-08-07T07:29:05;17.40;99.90
21648;DHT22;10985;54.182;7.890;2023-08-07T07:31:30;17.30;99.90
21648;DHT22;10985;54.182;7.890;2023-08-07T07:33:56;17.30;99.90
21648;DHT22;10985;54.182;7.890;2023-08-07T07:36:21;17.30;99.90
21648;DHT22;10985;54.182;7.890;2023-08-07T07:38:47;17.30;99.90
21648;DHT22;10985;54.182;7.890;2023-08-07T07:41:14;17.30;99.90
21648;DHT22;10985;54.182;7.890;2023-08-07T07:43:39;17.30;99.90
21648;DHT22;10985;54.182;7.890;2023-08-07T07:46:05;17.30;99.90
21648;DHT22;10985;54.182;7.890;2023-08-07T07:48:31;17.40;99.90
21648;DHT22;10985;54.182;7.890;2023-08-07T07:51:02;17.30;99.90
21648;DHT22;10985;54.182;7.890;2023-08-07T07:53:29;17.30;99.90
21648;DHT22;10985;54.182;7.890;2023-08-07T07:55:54;17.30;99.90
21648;DHT22;10985;54.182;7.890;2023-08-07T07:58:20;17.40;99.90
21648;DHT22;10985;54.182;7.890;2023-08-07T08:00:46;17.50;99.90
21648;DHT22;10985;54.182;7.890;2023-08-07T08:03:12;17.60;99.90
21648;DHT22;10985;54.182;7.890;2023-08-07T08:05:38;17.50;99.90
21648;DHT22;10985;54.182;7.890;2023-08-07T08:08:06;17.60;99.90
21648;DHT22;10985;54.182;7.890;2023-08-07T08:10:35;17.60;99.90
21648;DHT22;10985;54.182;7.890;2023-08-07T08:13:01;17.80;99.90
21648;DHT22;10985;54.182;7.890;2023-08-07T08:15:29;17.70;99.90
21648;DHT22;10985;54.182;7.890;2023-08-07T08:17:54;17.80;99.90
21648;DHT22;10985;54.182;7.890;2023-08-07T08:20:20;17.90;99.90
21648;DHT22;10985;54.182;7.890;2023-08-07T08:22:46;17.90;99.90
21648;DHT22;10985;54.182;7.890;2023-08-07T08:25:12;17.90;99.90
21648;DHT22;10985;54.182;7.890;2023-08-07T08:27:38;17.80;99.90
21648;DHT22;10985;54.182;7.890;2023-08-07T08:30:04;17.80;99.90
21648;DHT22;10985;54.182;7.890;2023-08-07T08:32:30;17.80;99.90
21648;DHT22;10985;54.182;7.890;2023-08-07T08:34:56;17.80;99.90
21648;DHT22;10985;54.182;7.890;2023-08-07T08:37:21;17.80;99.90
21648;DHT22;10985;54.182;7.890;2023-08-07T08:39:47;17.80;99.90
21648;DHT22;10985;54.182;7.890;2023-08-07T08:42:13;18.00;99.90
21648;DHT22;10985;54.182;7.890;2023-08-07T08:44:39;18.10;99.90
21648;DHT22;10985;54.182;7.890;2023-08-07T08:47:06;18.20;99.90
21648;DHT22;10985;54.182;7.890;2023-08-07T08:49:45;18.20;99.90
21648;DHT22;10985;54.182;7.890;2023-08-07T08:52:12;18.30;99.90
21648;DHT22;10985;54.182;7.890;2023-08-07T08:54:39;18.30;99.90
21648;DHT22;10985;54.182;7.890;2023-08-07T08:57:06;18.40;99.90
21648;DHT22;10985;54.182;7.890;2023-08-07T08:59:32;18.50;99.90
21648;DHT22;10985;54.182;7.890;2023-08-07T09:01:59;18.40;99.90
21648;DHT22;10985;54.182;7.890;2023-08-07T09:04:24;18.30;99.90
21648;DHT22;10985;54.182;7.890;2023-08-07T09:06:50;18.30;99.90
21648;DHT22;10985;54.182;7.890;2023-08-07T09:09:17;18.30;99.90
21648;DHT22;10985;54.182;7.890;2023-08-07T09:11:45;18.40;99.90
21648;DHT22;10985;54.182;7.890;2023-08-07T09:14:17;18.40;99.90
21648;DHT22;10985;54.182;7.890;2023-08-07T09:16:48;18.50;99.90
21648;DHT22;10985;54.182;7.890;2023-08-07T09:19:14;18.40;99.90
21648;DHT22;10985;54.182;7.890;2023-08-07T09:21:39;18.40;99.90
21648;DHT22;10985;54.182;7.890;2023-08-07T09:24:05;18.20;99.90
21648;DHT22;10985;54.182;7.890;2023-08-07T09:26:32;18.10;99.90
21648;DHT22;10985;54.182;7.890;2023-08-07T09:28:58;18.00;99.90
21648;DHT22;10985;54.182;7.890;2023-08-07T09:31:24;17.90;99.90
21648;DHT22;10985;54.182;7.890;2023-08-07T09:33:51;17.80;99.90
21648;DHT22;10985;54.182;7.890;2023-08-07T09:36:17;17.70;99.90
21648;DHT22;10985;54.182;7.890;2023-08-07T09:38:44;17.60;99.90
21648;DHT22;10985;54.182;7.890;2023-08-07T09:41:10;17.70;99.90
21648;DHT22;10985;54.182;7.890;2023-08-07T09:43:36;17.80;99.90
21648;DHT22;10985;54.182;7.890;2023-08-07T09:46:06;18.00;99.90
21648;DHT22;10985;54.182;7.890;2023-08-07T09:48:32;18.10;99.90
21648;DHT22;10985;54.182;7.890;2023-08-07T09:51:04;18.20;99.90
21648;DHT22;10985;54.182;7.890;2023-08-07T09:53:30;18.30;99.90
21648;DHT22;10985;54.182;7.890;2023-08-07T09:55:56;18.30;99.90
21648;DHT22;10985;54.182;7.890;2023-08-07T09:58:22;18.30;99.90
21648;DHT22;10985;54.182;7.890;2023-08-07T10:00:48;18.30;99.90
21648;DHT22;10985;54.182;7.890;2023-08-07T10:03:14;18.30;99.90
21648;DHT22;10985;54.182;7.890;2023-08-07T10:05:40;18.30;99.90
21648;DHT22;10985;54.182;7.890;2023-08-07T10:08:06;18.20;99.90
21648;DHT22;10985;54.182;7.890;2023-08-07T10:10:32;18.10;99.90
21648;DHT22;10985;54.182;7.890;2023-08-07T10:13:01;18.10;99.90
21648;DHT22;10985;54.182;7.890;2023-08-07T10:15:28;18.10;99.90
21648;DHT22;10985;54.182;7.890;2023-08-07T10:17:54;18.00;99.90
21648;DHT22;10985;54.182;7.890;2023-08-07T10:20:20;18.00;99.90
21648;DHT22;10985;54.182;7.890;2023-08-07T10:22:47;18.00;99.90
21648;DHT22;10985;54.182;7.890;2023-08-07T10:25:13;18.00;99.90
21648;DHT22;10985;54.182;7.890;2023-08-07T10:27:40;18.00;99.90
21648;DHT22;10985;54.182;7.890;2023-08-07T10:30:10;18.10;99.90
21648;DHT22;10985;54.182;7.890;2023-08-07T10:32:38;18.10;99.90
21648;DHT22;10985;54.182;7.890;2023-08-07T10:35:05;18.20;99.90
21648;DHT22;10985;54.182;7.890;2023-08-07T10:37:40;18.20;99.90
21648;DHT22;10985;54.182;7.890;2023-08-07T10:40:07;18.30;99.90
21648;DHT22;10985;54.182;7.890;2023-08-07T10:45:21;18.40;99.90
21648;DHT22;10985;54.182;7.890;2023-08-07T10:48:01;18.50;99.90
21648;DHT22;10985;54.182;7.890;2023-08-07T10:50:31;18.50;99.90
21648;DHT22;10985;54.182;7.890;2023-08-07T10:53:00;18.60;99.90
21648;DHT22;10985;54.182;7.890;2023-08-07T10:55:25;18.70;99.90
21648;DHT22;10985;54.182;7.890;2023-08-07T10:57:52;18.70;99.90
21648;DHT22;10985;54.182;7.890;2023-08-07T11:00:25;18.80;99.90
21648;DHT22;10985;54.182;7.890;2023-08-07T11:02:52;18.70;99.90
21648;DHT22;10985;54.182;7.890;2023-08-07T11:05:18;18.70;99.90
21648;DHT22;10985;54.182;7.890;2023-08-07T11:07:43;18.60;99.90
21648;DHT22;10985;54.182;7.890;2023-08-07T11:10:13;18.60;99.90
21648;DHT22;10985;54.182;7.890;2023-08-07T11:12:40;18.50;99.90
21648;DHT22;10985;54.182;7.890;2023-08-07T11:15:06;18.50;99.90
21648;DHT22;10985;54.182;7.890;2023-08-07T11:17:32;18.70;99.90
21648;DHT22;10985;54.182;7.890;2023-08-07T11:19:58;18.80;99.90
21648;DHT22;10985;54.182;7.890;2023-08-07T11:22:24;19.10;99.90
21648;DHT22;10985;54.182;7.890;2023-08-07T11:24:53;19.30;99.90
21648;DHT22;10985;54.182;7.890;2023-08-07T11:27:21;19.30;99.90
21648;DHT22;10985;54.182;7.890;2023-08-07T11:29:48;19.50;99.90
21648;DHT22;10985;54.182;7.890;2023-08-07T11:32:14;19.50;99.90
21648;DHT22;10985;54.182;7.890;2023-08-07T11:34:40;19.70;99.90
21648;DHT22;10985;54.182;7.890;2023-08-07T11:37:05;20.10;99.90
21648;DHT22;10985;54.182;7.890;2023-08-07T11:39:31;20.20;99.90
21648;DHT22;10985;54.182;7.890;2023-08-07T11:41:56;20.60;99.90
21648;DHT22;10985;54.182;7.890;2023-08-07T11:44:22;20.80;99.90
21648;DHT22;10985;54.182;7.890;2023-08-07T11:46:50;21.00;99.90
21648;DHT22;10985;54.182;7.890;2023-08-07T11:49:16;21.40;99.90
21648;DHT22;10985;54.182;7.890;2023-08-07T11:51:41;21.80;99.90
21648;DHT22;10985;54.182;7.890;2023-08-07T11:54:13;22.10;99.90
21648;DHT22;10985;54.182;7.890;2023-08-07T11:56:41;22.30;99.90
21648;DHT22;10985;54.182;7.890;2023-08-07T11:59:08;22.60;99.90
21648;DHT22;10985;54.182;7.890;2023-08-07T12:01:37;22.80;99.90
21648;DHT22;10985;54.182;7.890;2023-08-07T12:06:32;23.00;99.90
21648;DHT22;10985;54.182;7.890;2023-08-07T12:08:57;23.10;99.90
21648;DHT22;10985;54.182;7.890;2023-08-07T12:11:24;23.10;99.90
21648;DHT22;10985;54.182;7.890;2023-08-07T12:13:50;23.10;99.90
21648;DHT22;10985;54.182;7.890;2023-08-07T12:16:17;23.20;99.90
21648;DHT22;10985;54.182;7.890;2023-08-07T12:18:52;23.30;99.90
21648;DHT22;10985;54.182;7.890;2023-08-07T12:21:21;23.50;99.90
21648;DHT22;10985;54.182;7.890;2023-08-07T12:23:49;23.80;99.90
21648;DHT22;10985;54.182;7.890;2023-08-07T12:26:15;24.00;99.90
21648;DHT22;10985;54.182;7.890;2023-08-07T12:28:41;24.30;99.90
21648;DHT22;10985;54.182;7.890;2023-08-07T12:31:07;24.40;99.90
21648;DHT22;10985;54.182;7.890;2023-08-07T12:33:33;24.80;99.90
21648;DHT22;10985;54.182;7.890;2023-08-07T12:35:59;25.10;99.90
21648;DHT22;10985;54.182;7.890;2023-08-07T12:38:25;25.30;99.90
21648;DHT22;10985;54.182;7.890;2023-08-07T12:40:51;25.50;99.90
21648;DHT22;10985;54.182;7.890;2023-08-07T12:43:16;25.50;99.90
21648;DHT22;10985;54.182;7.890;2023-08-07T12:45:42;25.60;99.90
21648;DHT22;10985;54.182;7.890;2023-08-07T12:48:08;25.70;99.90
21648;DHT22;10985;54.182;7.890;2023-08-07T12:50:34;25.50;99.90
21648;DHT22;10985;54.182;7.890;2023-08-07T12:52:59;25.60;99.90
21648;DHT22;10985;54.182;7.890;2023-08-07T12:55:25;25.60;99.90
21648;DHT22;10985;54.182;7.890;2023-08-07T12:57:52;25.50;99.90
21648;DHT22;10985;54.182;7.890;2023-08-07T13:00:18;25.20;99.90
21648;DHT22;10985;54.182;7.890;2023-08-07T13:02:48;25.00;99.90
21648;DHT22;10985;54.182;7.890;2023-08-07T13:05:14;24.30;99.90
21648;DHT22;10985;54.182;7.890;2023-08-07T13:07:41;24.10;99.90
21648;DHT22;10985;54.182;7.890;2023-08-07T13:10:08;23.40;99.90
21648;DHT22;10985;54.182;7.890;2023-08-07T13:12:39;23.00;99.90
21648;DHT22;10985;54.182;7.890;2023-08-07T13:15:06;22.70;99.90
21648;DHT22;10985;54.182;7.890;2023-08-07T13:17:34;22.20;99.90
21648;DHT22;10985;54.182;7.890;2023-08-07T13:20:00;21.80;99.90
21648;DHT22;10985;54.182;7.890;2023-08-07T13:22:26;21.50;99.90
21648;DHT22;10985;54.182;7.890;2023-08-07T13:24:52;21.10;99.90
21648;DHT22;10985;54.182;7.890;2023-08-07T13:27:17;20.70;99.90
21648;DHT22;10985;54.182;7.890;2023-08-07T13:29:44;20.30;99.90
21648;DHT22;10985;54.182;7.890;2023-08-07T13:32:10;20.20;99.90
21648;DHT22;10985;54.182;7.890;2023-08-07T13:34:36;20.00;99.90
21648;DHT22;10985;54.182;7.890;2023-08-07T13:37:02;19.90;99.90
21648;DHT22;10985;54.182;7.890;2023-08-07T13:39:27;19.70;99.90
21648;DHT22;10985;54.182;7.890;2023-08-07T13:41:53;19.70;99.90
21648;DHT22;10985;54.182;7.890;2023-08-07T13:44:19;19.70;99.90
21648;DHT22;10985;54.182;7.890;2023-08-07T13:46:45;19.70;99.90
21648;DHT22;10985;54.182;7.890;2023-08-07T13:49:11;19.60;99.90
21648;DHT22;10985;54.182;7.890;2023-08-07T13:51:36;19.60;99.90
21648;DHT22;10985;54.182;7.890;2023-08-07T13:54:02;19.30;99.90
21648;DHT22;10985;54.182;7.890;2023-08-07T13:56:27;19.20;99.90
21648;DHT22;10985;54.182;7.890;2023-08-07T13:58:53;19.00;99.90
21648;DHT22;10985;54.182;7.890;2023-08-07T14:01:20;18.90;99.90
21648;DHT22;10985;54.182;7.890;2023-08-07T14:03:45;18.80;99.90
21648;DHT22;10985;54.182;7.890;2023-08-07T14:06:11;18.80;99.90
21648;DHT22;10985;54.182;7.890;2023-08-07T14:08:36;18.90;99.90
21648;DHT22;10985;54.182;7.890;2023-08-07T14:11:02;18.90;99.90
21648;DHT22;10985;54.182;7.890;2023-08-07T14:13:28;19.00;99.90
21648;DHT22;10985;54.182;7.890;2023-08-07T14:15:53;19.00;99.90
21648;DHT22;10985;54.182;7.890;2023-08-07T14:18:19;19.00;99.90
21648;DHT22;10985;54.182;7.890;2023-08-07T14:20:44;19.00;99.90
21648;DHT22;10985;54.182;7.890;2023-08-07T14:23:10;19.10;99.90
21648;DHT22;10985;54.182;7.890;2023-08-07T14:25:35;19.10;99.90
21648;DHT22;10985;54.182;7.890;2023-08-07T14:28:01;19.10;99.90
21648;DHT22;10985;54.182;7.890;2023-08-07T14:30:26;19.10;99.90
21648;DHT22;10985;54.182;7.890;2023-08-07T14:32:52;19.10;99.90
21648;DHT22;10985;54.182;7.890;2023-08-07T14:35:17;18.90;99.90
21648;DHT22;10985;54.182;7.890;2023-08-07T14:37:43;18.90;99.90
21648;DHT22;10985;54.182;7.890;2023-08-07T14:40:09;18.80;99.90
21648;DHT22;10985;54.182;7.890;2023-08-07T14:42:35;18.80;99.90
21648;DHT22;10985;54.182;7.890;2023-08-07T14:45:00;18.70;99.90
21648;DHT22;10985;54.182;7.890;2023-08-07T14:47:26;18.70;99.90
21648;DHT22;10985;54.182;7.890;2023-08-07T14:49:51;18.70;99.90
21648;DHT22;10985;54.182;7.890;2023-08-07T14:52:18;18.70;99.90
21648;DHT22;10985;54.182;7.890;2023-08-07T14:54:43;18.70;99.90
21648;DHT22;10985;54.182;7.890;2023-08-07T14:57:09;18.60;99.90
21648;DHT22;10985;54.182;7.890;2023-08-07T14:59:35;18.60;99.90
21648;DHT22;10985;54.182;7.890;2023-08-07T15:02:00;18.50;99.90
21648;DHT22;10985;54.182;7.890;2023-08-07T15:04:26;18.50;99.90
21648;DHT22;10985;54.182;7.890;2023-08-07T15:06:51;18.50;99.90
21648;DHT22;10985;54.182;7.890;2023-08-07T15:09:17;18.50;99.90
21648;DHT22;10985;54.182;7.890;2023-08-07T15:11:48;18.50;99.90
21648;DHT22;10985;54.182;7.890;2023-08-07T15:14:14;18.40;99.90
21648;DHT22;10985;54.182;7.890;2023-08-07T15:16:39;18.40;99.90
21648;DHT22;10985;54.182;7.890;2023-08-07T15:19:06;18.40;99.90
21648;DHT22;10985;54.182;7.890;2023-08-07T15:21:31;18.40;99.90
21648;DHT22;10985;54.182;7.890;2023-08-07T15:23:57;18.30;99.90
21648;DHT22;10985;54.182;7.890;2023-08-07T15:26:23;18.30;99.90
21648;DHT22;10985;54.182;7.890;2023-08-07T15:28:48;18.30;99.90
21648;DHT22;10985;54.182;7.890;2023-08-07T15:31:14;18.30;99.90
21648;DHT22;10985;54.182;7.890;2023-08-07T15:33:39;18.20;99.90